Time;durP1;ratioP1;P1;durP2;ratioP2;P2;SDS_P1;SDS_P2;PMS_P1;PMS_P2;Temp;Humidity;BMP_temperature;BMP_pressure;BME280_temperature;BME280_humidity;BME280_pressure;Samples;Min_cycle;Max_cycle;Signal;HPM_P1;HPM_P2
2022/04/06 00:00:09;;;;;;;26.27;11.70;;;9.00;99.90;;;;;;5175297;27;20038;-78
2022/04/06 00:02:39;;;;;;;28.53;12.77;;;9.00;99.90;;;;;;5156995;27;20114;-78
2022/04/06 00:05:09;;;;;;;28.40;12.07;;;9.00;99.90;;;;;;5175479;27;20272;-78
2022/04/06 00:07:44;;;;;;;27.30;12.13;;;9.00;99.90;;;;;;5175727;27;20319;-78
2022/04/06 00:10:13;;;;;;;26.45;12.25;;;9.00;99.90;;;;;;5175037;27;20848;-78
2022/04/06 00:12:40;;;;;;;28.30;11.20;;;9.00;99.90;;;;;;5175482;27;20049;-78
2022/04/06 00:15:09;;;;;;;30.57;12.13;;;9.00;99.90;;;;;;5175271;27;20275;-78
2022/04/06 00:17:35;;;;;;;26.50;11.93;;;9.00;99.90;;;;;;5175745;27;20395;-78
2022/04/06 00:20:01;;;;;;;30.23;11.80;;;9.00;99.90;;;;;;5175154;27;20287;-79
2022/04/06 00:22:27;;;;;;;28.63;11.63;;;9.00;99.90;;;;;;5156397;27;20283;-78
2022/04/06 00:24:53;;;;;;;31.30;12.13;;;9.00;99.90;;;;;;5175667;27;20286;-78
2022/04/06 00:27:19;;;;;;;31.97;11.97;;;9.00;99.90;;;;;;5139629;27;20501;-78
2022/04/06 00:29:44;;;;;;;27.97;11.67;;;9.00;99.90;;;;;;5175416;27;20409;-79
2022/04/06 00:32:10;;;;;;;34.03;11.93;;;9.00;99.90;;;;;;5175116;27;20572;-79
2022/04/06 00:37:20;;;;;;;26.43;11.17;;;9.00;99.90;;;;;;5175086;27;20054;-78
2022/04/06 00:39:46;;;;;;;22.50;10.27;;;9.00;99.90;;;;;;5156931;27;20279;-78
2022/04/06 00:42:12;;;;;;;23.63;10.00;;;9.00;99.90;;;;;;5175323;27;20046;-78
2022/04/06 00:44:38;;;;;;;26.27;9.57;;;9.00;99.90;;;;;;5175226;27;20050;-78
2022/04/06 00:47:05;;;;;;;28.10;8.63;;;9.00;99.90;;;;;;5174985;27;20393;-79
2022/04/06 00:49:32;;;;;;;28.00;8.20;;;9.10;99.90;;;;;;5157023;27;20327;-79
2022/04/06 00:52:01;;;;;;;28.20;8.93;;;9.10;99.90;;;;;;5175225;27;20272;-78
2022/04/06 00:54:30;;;;;;;26.30;8.27;;;9.10;99.90;;;;;;5178374;27;20588;-79
2022/04/06 00:56:56;;;;;;;23.73;7.57;;;9.10;99.90;;;;;;5179167;27;20283;-79
2022/04/06 00:59:22;;;;;;;20.93;7.27;;;9.10;99.90;;;;;;5178906;27;20284;-79
2022/04/06 01:01:50;;;;;;;18.67;7.47;;;9.10;99.90;;;;;;5179060;27;20283;-78
2022/04/06 01:04:17;;;;;;;21.93;7.23;;;9.10;99.90;;;;;;5159988;27;20049;-78
2022/04/06 01:06:48;;;;;;;19.40;6.57;;;9.10;99.90;;;;;;5179157;27;20279;-78
2022/04/06 01:09:15;;;;;;;20.47;6.53;;;9.10;99.90;;;;;;5178641;27;20278;-78
2022/04/06 01:11:44;;;;;;;17.67;6.63;;;9.10;99.90;;;;;;5179023;27;20274;-79
2022/04/06 01:14:10;;;;;;;23.50;6.80;;;9.10;99.90;;;;;;5178583;27;20417;-78
2022/04/06 01:16:36;;;;;;;20.83;6.00;;;9.10;99.90;;;;;;5178838;27;20346;-79
2022/04/06 01:19:01;;;;;;;21.27;6.30;;;9.10;99.90;;;;;;5160238;27;20363;-79
2022/04/06 01:21:27;;;;;;;16.97;6.13;;;9.10;99.90;;;;;;5178413;27;20038;-79
2022/04/06 01:23:53;;;;;;;16.67;5.97;;;9.10;99.90;;;;;;5178559;27;20054;-78
2022/04/06 01:26:19;;;;;;;18.43;6.37;;;9.10;99.90;;;;;;5178419;27;20054;-79
2022/04/06 01:28:45;;;;;;;18.40;6.00;;;9.10;99.90;;;;;;5160193;27;20045;-79
2022/04/06 01:31:11;;;;;;;17.03;6.17;;;9.10;99.90;;;;;;5178375;27;20267;-79
2022/04/06 01:33:37;;;;;;;14.53;5.80;;;9.20;99.90;;;;;;5178522;27;20095;-79
2022/04/06 01:36:03;;;;;;;18.03;6.00;;;9.10;99.90;;;;;;5178447;27;20268;-78
2022/04/06 01:38:29;;;;;;;17.40;5.93;;;9.20;99.90;;;;;;5159590;27;20044;-79
2022/04/06 01:40:55;;;;;;;17.13;5.47;;;9.20;99.90;;;;;;5178308;27;20299;-79
2022/04/06 01:43:21;;;;;;;14.17;5.07;;;9.20;99.90;;;;;;5159434;27;20042;-79
2022/04/06 01:45:47;;;;;;;16.03;5.50;;;9.20;99.90;;;;;;5178346;27;20069;-79
2022/04/06 01:48:17;;;;;;;17.37;5.97;;;9.20;99.90;;;;;;5177908;27;20734;-78
2022/04/06 01:53:29;;;;;;;18.98;4.70;;;9.20;99.90;;;;;;5177854;27;20282;-78
2022/04/06 01:55:55;;;;;;;15.17;4.43;;;9.20;99.90;;;;;;5178291;27;20116;-78
2022/04/06 01:58:22;;;;;;;14.07;4.90;;;9.20;99.90;;;;;;5177727;27;20331;-78
2022/04/06 02:00:49;;;;;;;11.80;4.00;;;9.20;99.90;;;;;;5159483;27;20299;-78
2022/04/06 02:03:15;;;;;;;15.80;4.63;;;9.20;99.90;;;;;;5177576;27;20742;-78
2022/04/06 02:05:41;;;;;;;13.50;4.20;;;9.20;99.90;;;;;;5177741;27;20272;-78
2022/04/06 02:08:07;;;;;;;12.37;3.80;;;9.20;99.90;;;;;;5177860;27;20057;-78
2022/04/06 02:10:33;;;;;;;13.50;3.83;;;9.20;99.90;;;;;;5177564;27;20042;-78
2022/04/06 02:13:00;;;;;;;14.97;3.50;;;9.20;99.90;;;;;;5177489;27;20486;-78
2022/04/06 02:15:30;;;;;;;10.83;3.67;;;9.20;99.90;;;;;;5177351;27;20279;-78
2022/04/06 02:17:56;;;;;;;10.37;3.47;;;9.10;99.90;;;;;;5177642;27;20280;-78
2022/04/06 02:20:22;;;;;;;9.10;3.17;;;9.10;99.90;;;;;;5177222;27;20379;-78
2022/04/06 02:22:48;;;;;;;13.03;3.63;;;9.10;99.90;;;;;;5177342;27;20271;-78
2022/04/06 02:25:15;;;;;;;11.17;2.70;;;9.10;99.90;;;;;;5177276;27;20267;-78
2022/04/06 02:27:59;;;;;;;13.73;3.53;;;9.10;99.90;;;;;;5158909;27;20840;-78
2022/04/06 02:30:24;;;;;;;7.80;2.50;;;9.10;99.90;;;;;;5177476;27;20271;-78
2022/04/06 02:32:50;;;;;;;9.30;3.27;;;9.00;99.90;;;;;;5177357;27;20615;-78
2022/04/06 02:35:16;;;;;;;10.00;2.77;;;9.10;99.90;;;;;;5177010;27;20052;-78
2022/04/06 02:37:44;;;;;;;11.03;2.57;;;9.10;99.90;;;;;;5177529;27;20392;-78
2022/04/06 02:40:11;;;;;;;11.13;2.60;;;9.10;99.90;;;;;;5177232;27;20296;-78
2022/04/06 02:42:37;;;;;;;6.67;2.50;;;9.10;99.90;;;;;;5176899;27;20271;-78
2022/04/06 02:45:03;;;;;;;7.67;2.70;;;9.10;99.90;;;;;;5158701;27;20753;-78
2022/04/06 02:47:29;;;;;;;9.90;2.87;;;9.10;99.90;;;;;;5176886;27;20125;-78
2022/04/06 02:49:54;;;;;;;11.97;2.50;;;9.10;99.90;;;;;;5158746;27;20596;-79
2022/04/06 02:52:20;;;;;;;12.23;2.87;;;9.10;99.90;;;;;;5176660;27;20042;-78
2022/04/06 02:54:46;;;;;;;14.63;3.30;;;9.10;99.90;;;;;;5158776;27;20042;-78
2022/04/06 02:57:11;;;;;;;8.87;2.60;;;9.10;99.90;;;;;;5176994;27;20616;-78
2022/04/06 02:59:39;;;;;;;11.47;3.70;;;9.10;99.90;;;;;;5176484;27;20043;-78
2022/04/06 03:02:05;;;;;;;15.53;3.33;;;9.10;99.90;;;;;;5158016;27;20427;-78
2022/04/06 03:04:31;;;;;;;13.03;3.60;;;9.10;99.90;;;;;;5176085;27;20279;-78
2022/04/06 03:06:56;;;;;;;9.23;3.20;;;9.10;99.90;;;;;;5176888;27;20055;-78
2022/04/06 03:09:22;;;;;;;12.20;3.87;;;9.10;99.90;;;;;;5157891;27;20046;-78
2022/04/06 03:11:48;;;;;;;11.37;3.50;;;9.10;99.90;;;;;;5176616;27;20125;-78
2022/04/06 03:14:13;;;;;;;11.27;3.97;;;9.10;99.90;;;;;;5176727;27;20050;-78
2022/04/06 03:16:39;;;;;;;12.37;3.53;;;9.10;99.90;;;;;;5175595;27;20038;-78
2022/04/06 03:19:05;;;;;;;17.30;4.43;;;9.10;99.90;;;;;;5176555;27;20446;-77
2022/04/06 03:21:31;;;;;;;16.60;4.50;;;9.10;99.90;;;;;;5175946;27;20054;-77
2022/04/06 03:23:57;;;;;;;13.70;4.23;;;9.10;99.90;;;;;;5175946;27;20058;-77
2022/04/06 03:26:23;;;;;;;13.60;4.17;;;9.10;99.90;;;;;;5175969;27;20323;-77
2022/04/06 03:28:49;;;;;;;15.70;4.17;;;9.10;99.90;;;;;;5176262;27;20054;-77
2022/04/06 03:31:14;;;;;;;14.27;4.60;;;9.10;99.90;;;;;;5157789;27;20042;-78
2022/04/06 03:33:40;;;;;;;13.13;4.40;;;9.10;99.90;;;;;;5175844;27;20502;-78
2022/04/06 03:36:06;;;;;;;13.77;4.57;;;9.10;99.90;;;;;;5176128;27;20050;-78
2022/04/06 03:38:32;;;;;;;11.80;4.40;;;9.10;99.90;;;;;;5175735;27;20042;-78
2022/04/06 03:40:58;;;;;;;16.40;4.93;;;9.10;99.90;;;;;;5175971;27;20042;-77
2022/04/06 03:43:24;;;;;;;15.60;4.87;;;9.10;99.90;;;;;;5175749;27;20694;-77
2022/04/06 03:45:50;;;;;;;17.20;5.07;;;9.10;99.90;;;;;;5157862;27;20114;-77
2022/04/06 03:48:16;;;;;;;17.00;6.40;;;9.10;99.90;;;;;;5175910;27;20042;-77
2022/04/06 03:50:41;;;;;;;15.40;5.10;;;9.00;99.90;;;;;;5175561;27;20478;-77
2022/04/06 03:53:07;;;;;;;15.33;5.33;;;9.00;99.90;;;;;;5176288;27;20106;-77
2022/04/06 03:55:33;;;;;;;17.00;6.10;;;9.00;99.90;;;;;;5175555;27;20047;-77
2022/04/06 03:57:59;;;;;;;17.00;5.23;;;9.00;99.90;;;;;;5175979;27;20486;-77
2022/04/06 04:00:25;;;;;;;15.27;5.83;;;9.00;99.90;;;;;;5175398;27;20042;-77
2022/04/06 04:02:50;;;;;;;21.00;6.27;;;9.00;99.90;;;;;;5175754;27;20038;-77
2022/04/06 04:05:17;;;;;;;18.03;6.00;;;9.00;99.90;;;;;;5175887;27;20046;-77
2022/04/06 04:07:46;;;;;;;21.10;6.43;;;9.00;99.90;;;;;;5156761;27;20417;-75
2022/04/06 04:10:14;;;;;;;19.57;6.80;;;9.00;99.90;;;;;;5175627;27;20275;-75
2022/04/06 04:12:40;;;;;;;21.03;7.00;;;9.00;99.90;;;;;;5175343;27;20635;-75
2022/04/06 04:15:06;;;;;;;21.00;7.10;;;9.00;99.90;;;;;;5175591;27;20283;-75
2022/04/06 04:17:32;;;;;;;23.60;6.23;;;9.00;99.90;;;;;;5175236;27;20277;-76
2022/04/06 04:19:58;;;;;;;20.67;6.10;;;8.90;99.90;;;;;;5156966;27;20283;-76
2022/04/06 04:22:24;;;;;;;13.97;5.47;;;8.90;99.90;;;;;;5156729;27;20056;-77
2022/04/06 04:24:49;;;;;;;22.70;5.80;;;8.90;99.90;;;;;;5156851;27;20106;-76
2022/04/06 04:27:15;;;;;;;16.60;5.60;;;8.90;99.90;;;;;;5175621;27;20627;-76
2022/04/06 04:29:42;;;;;;;17.70;5.67;;;8.90;99.90;;;;;;5179334;27;20083;-76
2022/04/06 04:32:10;;;;;;;19.80;5.70;;;8.90;99.90;;;;;;5179793;27;20268;-76
2022/04/06 04:34:36;;;;;;;18.47;6.07;;;8.90;99.90;;;;;;5161028;27;20307;-75
2022/04/06 04:37:02;;;;;;;24.93;5.63;;;8.90;99.90;;;;;;5179671;27;20332;-75
2022/04/06 04:39:27;;;;;;;17.17;5.33;;;8.80;99.90;;;;;;5179323;27;20275;-76
2022/04/06 04:41:53;;;;;;;18.03;5.83;;;8.80;99.90;;;;;;5160947;27;20098;-76
2022/04/06 04:44:19;;;;;;;22.63;5.73;;;8.80;99.90;;;;;;5179640;27;20046;-76
2022/04/06 04:46:45;;;;;;;22.70;5.87;;;8.80;99.90;;;;;;5179143;27;20343;-75
2022/04/06 04:49:11;;;;;;;19.40;5.57;;;8.80;99.90;;;;;;5160863;27;20046;-75
2022/04/06 04:51:37;;;;;;;22.10;6.07;;;8.80;99.90;;;;;;5179115;27;20049;-76
2022/04/06 04:54:03;;;;;;;20.47;5.17;;;8.80;99.90;;;;;;5179346;27;20054;-75
2022/04/06 04:56:30;;;;;;;17.90;5.40;;;8.80;99.90;;;;;;5178963;27;20272;-76
2022/04/06 04:58:56;;;;;;;21.97;6.00;;;8.80;99.90;;;;;;5179281;27;20282;-76
2022/04/06 05:01:22;;;;;;;20.07;5.20;;;8.80;99.90;;;;;;5179044;27;20324;-76
2022/04/06 05:03:48;;;;;;;19.17;5.63;;;8.80;99.90;;;;;;5178737;27;20511;-76
2022/04/06 05:06:14;;;;;;;15.70;5.57;;;8.80;99.90;;;;;;5179230;27;20125;-76
2022/04/06 05:08:40;;;;;;;20.47;5.67;;;8.70;99.90;;;;;;5178793;27;20375;-76
2022/04/06 05:11:06;;;;;;;19.97;4.97;;;8.70;99.90;;;;;;5179256;27;20038;-76
2022/04/06 05:13:31;;;;;;;23.93;6.13;;;8.70;99.90;;;;;;5160087;27;20432;-76
2022/04/06 05:15:58;;;;;;;15.90;4.57;;;8.70;99.90;;;;;;5178902;27;20125;-75
2022/04/06 05:18:25;;;;;;;19.50;5.17;;;8.70;99.90;;;;;;5178887;27;20053;-75
2022/04/06 05:20:53;;;;;;;16.47;5.10;;;8.70;99.90;;;;;;5178406;27;20294;-75
2022/04/06 05:23:19;;;;;;;23.93;6.33;;;8.70;99.90;;;;;;5178742;27;20291;-74
2022/04/06 05:25:45;;;;;;;17.97;5.80;;;8.70;99.90;;;;;;5160021;27;20287;-75
2022/04/06 05:28:10;;;;;;;20.07;5.63;;;8.70;99.90;;;;;;5160027;27;20363;-75
2022/04/06 05:30:38;;;;;;;19.90;5.37;;;8.70;99.90;;;;;;5178269;27;20065;-75
2022/04/06 05:33:04;;;;;;;18.00;6.20;;;8.70;99.90;;;;;;5178522;27;20084;-75
2022/04/06 05:35:30;;;;;;;21.07;6.50;;;8.60;99.90;;;;;;5178508;27;20275;-75
2022/04/06 05:37:57;;;;;;;17.90;6.17;;;8.60;99.90;;;;;;5177846;27;20282;-75
2022/04/06 05:40:23;;;;;;;23.60;6.13;;;8.70;99.90;;;;;;5159153;27;20042;-75
2022/04/06 05:42:48;;;;;;;18.20;5.70;;;8.60;99.90;;;;;;5159369;27;20279;-75
2022/04/06 05:45:15;;;;;;;23.50;6.73;;;8.60;99.90;;;;;;5178313;27;20271;-75
2022/04/06 05:47:42;;;;;;;23.07;7.10;;;8.60;99.90;;;;;;5177923;27;20064;-75
2022/04/06 05:50:09;;;;;;;24.70;6.40;;;8.60;99.90;;;;;;5178146;27;20366;-75
2022/04/06 05:52:35;;;;;;;20.40;5.77;;;8.60;99.90;;;;;;5177927;27;20271;-76
2022/04/06 05:55:02;;;;;;;21.17;7.10;;;8.60;99.90;;;;;;5178537;27;20275;-76
2022/04/06 05:57:27;;;;;;;18.63;6.10;;;8.60;99.90;;;;;;5178074;27;20042;-75
2022/04/06 05:59:53;;;;;;;22.23;5.40;;;8.60;99.90;;;;;;5177669;27;20801;-76
2022/04/06 06:02:19;;;;;;;22.47;5.83;;;8.60;99.90;;;;;;5178238;27;20091;-76
2022/04/06 06:04:45;;;;;;;18.90;5.27;;;8.60;99.90;;;;;;5177621;27;20050;-76
2022/04/06 06:07:11;;;;;;;20.17;5.70;;;8.60;99.90;;;;;;5177935;27;20077;-76
2022/04/06 06:09:37;;;;;;;18.60;5.80;;;8.60;99.90;;;;;;5177571;27;20053;-77
2022/04/06 06:12:03;;;;;;;18.80;5.03;;;8.60;99.90;;;;;;5177916;27;20675;-76
2022/04/06 06:14:30;;;;;;;19.63;4.83;;;8.60;99.90;;;;;;5177792;27;20292;-76
2022/04/06 06:16:58;;;;;;;19.10;5.23;;;8.60;99.90;;;;;;5158837;27;20271;-76
2022/04/06 06:19:24;;;;;;;23.93;5.37;;;8.60;99.90;;;;;;5177638;27;20272;-76
2022/04/06 06:21:50;;;;;;;25.60;6.17;;;8.60;99.90;;;;;;5177147;27;20312;-76
2022/04/06 06:24:15;;;;;;;25.93;4.90;;;8.60;99.90;;;;;;5177333;27;20288;-76
2022/04/06 06:26:44;;;;;;;25.07;5.00;;;8.60;99.90;;;;;;5177205;27;20050;-77
2022/04/06 06:29:11;;;;;;;17.67;4.40;;;8.70;99.90;;;;;;5177591;27;20047;-76
2022/04/06 06:31:37;;;;;;;15.60;4.27;;;8.70;99.90;;;;;;5177478;27;20275;-77
2022/04/06 06:34:03;;;;;;;23.80;4.40;;;8.60;99.90;;;;;;5177089;27;20283;-76
2022/04/06 06:36:29;;;;;;;18.50;4.23;;;8.70;99.90;;;;;;5177455;27;20093;-77
2022/04/06 06:38:55;;;;;;;24.30;4.50;;;8.70;99.90;;;;;;5177046;27;20307;-76
2022/04/06 06:41:22;;;;;;;20.53;3.97;;;8.60;99.90;;;;;;5158735;27;20438;-76
2022/04/06 06:43:49;;;;;;;16.70;4.80;;;8.60;99.90;;;;;;5177001;27;20298;-76
2022/04/06 06:46:19;;;;;;;20.70;4.17;;;8.60;99.90;;;;;;5177127;27;20315;-76
2022/04/06 06:48:46;;;;;;;18.23;5.23;;;8.60;99.90;;;;;;5176835;27;20287;-76
2022/04/06 06:51:14;;;;;;;15.07;3.80;;;8.60;99.90;;;;;;5176050;27;20271;-76
2022/04/06 06:53:39;;;;;;;17.87;4.17;;;8.60;99.90;;;;;;5176848;27;20280;-76
2022/04/06 06:56:06;;;;;;;18.83;4.23;;;8.60;99.90;;;;;;5176618;27;20279;-76
2022/04/06 06:58:32;;;;;;;15.70;3.80;;;8.60;99.90;;;;;;5170587;27;20041;-76
2022/04/06 07:00:58;;;;;;;12.83;3.60;;;8.60;99.90;;;;;;5148713;27;20291;-75
2022/04/06 07:03:23;;;;;;;21.40;4.67;;;8.60;99.90;;;;;;5158115;27;20082;-76
2022/04/06 07:05:49;;;;;;;17.77;3.27;;;8.60;99.90;;;;;;5176528;27;20049;-79
2022/04/06 07:08:15;;;;;;;18.00;3.67;;;8.60;99.90;;;;;;5176836;27;20049;-77
2022/04/06 07:10:46;;;;;;;19.67;3.40;;;8.60;99.90;;;;;;5176596;27;20386;-76
2022/04/06 07:13:12;;;;;;;19.73;4.43;;;8.60;99.90;;;;;;5158075;27;20038;-77
2022/04/06 07:15:41;;;;;;;15.03;3.57;;;8.60;99.90;;;;;;5176500;27;20279;-77
2022/04/06 07:18:08;;;;;;;22.20;4.40;;;8.60;99.90;;;;;;5176209;27;20288;-76
2022/04/06 07:20:38;;;;;;;17.87;3.53;;;8.60;99.90;;;;;;5176276;27;20318;-77
2022/04/06 07:23:04;;;;;;;20.13;3.77;;;8.60;99.90;;;;;;5157368;27;20323;-77
2022/04/06 07:25:31;;;;;;;18.53;4.30;;;8.70;99.90;;;;;;5157985;27;20623;-76
2022/04/06 07:27:57;;;;;;;21.90;4.47;;;8.70;99.90;;;;;;5175909;27;20272;-77
2022/04/06 07:30:23;;;;;;;25.90;4.73;;;8.70;99.90;;;;;;5176441;27;20294;-77
2022/04/06 07:32:48;;;;;;;16.23;3.20;;;8.70;99.90;;;;;;5175808;27;20806;-77
2022/04/06 07:35:16;;;;;;;16.57;3.23;;;8.70;99.90;;;;;;5176179;27;20279;-78
2022/04/06 07:37:48;;;;;;;20.60;3.33;;;8.70;99.90;;;;;;5176193;27;20050;-78
2022/04/06 07:40:19;;;;;;;22.27;4.83;;;8.70;99.90;;;;;;5157661;27;20329;-77
2022/04/06 07:42:46;;;;;;;17.17;3.63;;;8.70;99.90;;;;;;5176173;27;20267;-77
2022/04/06 07:45:14;;;;;;;17.37;3.60;;;8.70;99.90;;;;;;5175870;27;20324;-77
2022/04/06 07:47:40;;;;;;;18.80;4.17;;;8.80;99.90;;;;;;5175978;27;20339;-77
2022/04/06 07:50:07;;;;;;;21.43;4.03;;;8.80;99.90;;;;;;5156992;27;20275;-76
2022/04/06 07:52:33;;;;;;;22.90;4.43;;;8.80;99.90;;;;;;5175867;27;20797;-76
2022/04/06 07:55:00;;;;;;;16.17;3.43;;;8.80;99.90;;;;;;5175519;27;20363;-76
2022/04/06 07:57:28;;;;;;;20.40;3.80;;;8.80;99.90;;;;;;5175657;27;20280;-76
2022/04/06 07:59:55;;;;;;;24.07;4.07;;;8.80;99.90;;;;;;5175266;27;20301;-76
2022/04/06 08:02:20;;;;;;;19.70;3.87;;;8.80;99.90;;;;;;5175687;27;20303;-76
2022/04/06 08:04:46;;;;;;;22.40;4.10;;;8.80;99.90;;;;;;5175639;27;20271;-75
2022/04/06 08:07:12;;;;;;;16.90;3.67;;;8.80;99.90;;;;;;5175348;27;20207;-76
2022/04/06 08:09:38;;;;;;;24.07;4.27;;;8.90;99.90;;;;;;5175664;27;20050;-76
2022/04/06 08:12:04;;;;;;;17.30;3.43;;;8.80;99.90;;;;;;5175237;27;20162;-76
2022/04/06 08:14:30;;;;;;;20.33;4.27;;;8.80;99.90;;;;;;5175692;27;20038;-76
2022/04/06 08:16:56;;;;;;;20.97;3.70;;;8.90;99.90;;;;;;5175167;27;20753;-76
2022/04/06 08:19:24;;;;;;;22.70;3.73;;;8.90;99.90;;;;;;5175421;27;20085;-76
2022/04/06 08:21:50;;;;;;;21.03;3.40;;;8.90;99.90;;;;;;5175421;27;20318;-76
2022/04/06 08:24:16;;;;;;;19.03;3.43;;;8.90;99.90;;;;;;5175419;27;20279;-78
2022/04/06 08:26:42;;;;;;;21.93;3.73;;;8.90;99.90;;;;;;5175590;27;20374;-80
2022/04/06 08:29:08;;;;;;;14.17;3.13;;;8.90;99.90;;;;;;5175148;27;20056;-79
2022/04/06 08:31:34;;;;;;;16.40;3.63;;;8.90;99.90;;;;;;5165993;27;20050;-77
2022/04/06 08:34:00;;;;;;;17.63;3.27;;;8.90;99.90;;;;;;5165194;27;20077;-78
2022/04/06 08:36:25;;;;;;;17.03;2.77;;;9.00;99.90;;;;;;5163847;27;20287;-77
2022/04/06 08:38:51;;;;;;;15.57;3.20;;;9.10;99.90;;;;;;5164048;27;20114;-76
2022/04/06 08:41:20;;;;;;;18.27;3.67;;;9.00;99.90;;;;;;5165070;27;20553;-77
2022/04/06 08:43:46;;;;;;;17.57;3.40;;;9.10;99.90;;;;;;5167113;27;20086;-75
2022/04/06 08:46:12;;;;;;;16.33;3.63;;;9.00;99.90;;;;;;5165660;27;20272;-77
2022/04/06 08:48:38;;;;;;;17.40;3.27;;;9.10;99.90;;;;;;5163226;27;20043;-76
2022/04/06 08:51:08;;;;;;;18.37;3.30;;;9.10;99.90;;;;;;5164561;27;20066;-81
2022/04/06 08:53:43;;;;;;;12.70;2.90;;;9.20;99.90;;;;;;5165137;27;20280;-79
2022/04/06 08:56:12;;;;;;;15.57;3.37;;;9.30;99.90;;;;;;5164779;27;20268;-80
2022/04/06 08:58:39;;;;;;;17.27;3.80;;;9.40;99.90;;;;;;5163286;27;20279;-81
2022/04/06 09:01:05;;;;;;;13.87;3.43;;;9.50;99.90;;;;;;5163954;27;20284;-79
2022/04/06 09:03:31;;;;;;;19.83;3.83;;;9.60;99.90;;;;;;5165034;27;20300;-79
2022/04/06 09:06:10;;;;;;;10.43;3.07;;;9.70;99.90;;;;;;5160390;27;20755;-81
2022/04/06 09:08:42;;;;;;;15.20;4.00;;;9.80;99.90;;;;;;5164082;27;20121;-80
2022/04/06 09:11:16;;;;;;;18.20;3.53;;;9.90;99.90;;;;;;5164941;27;20324;-80
2022/04/06 09:13:43;;;;;;;13.32;3.33;;;;;;;;;;5164694;27;20320;-79
2022/04/06 09:16:10;;;;;;;19.53;3.67;;;;;;;;;;5167324;27;20042;-79
2022/04/06 09:18:38;;;;;;;22.87;3.90;;;;;;;;;;5178472;27;20279;-77
2022/04/06 09:21:04;;;;;;;20.20;3.63;;;;;;;;;;5178606;27;20458;-77
2022/04/06 09:23:31;;;;;;;22.83;3.73;;;;;;;;;;5178719;27;20658;-79
2022/04/06 09:26:03;;;;;;;17.13;3.60;;;10.40;99.90;;;;;;5178777;27;20279;-79
2022/04/06 09:28:29;;;;;;;21.17;3.47;;;10.40;99.90;;;;;;5160544;27;20287;-81
2022/04/06 09:30:55;;;;;;;17.00;3.93;;;10.40;99.90;;;;;;5178642;27;20267;-80
2022/04/06 09:33:24;;;;;;;18.43;3.70;;;10.40;99.90;;;;;;5178186;27;20362;-81
2022/04/06 09:35:49;;;;;;;17.50;3.73;;;10.30;99.90;;;;;;5176170;27;20060;-79
2022/04/06 09:38:20;;;;;;;19.63;3.67;;;10.40;99.90;;;;;;5157487;27;20664;-79
2022/04/06 09:40:46;;;;;;;17.33;4.30;;;10.40;99.90;;;;;;5158079;27;20050;-83
2022/04/06 09:43:35;;;;;;;14.50;3.97;;;10.30;99.90;;;;;;5154730;27;20307;-82
2022/04/06 09:49:01;;;;;;;16.30;3.40;;;10.30;99.90;;;;;;5172262;27;20319;-79
2022/04/06 09:51:27;;;;;;;20.67;4.10;;;10.30;99.90;;;;;;5156384;27;20758;-84
2022/04/06 09:53:53;;;;;;;18.33;4.00;;;10.20;99.90;;;;;;5178083;27;20282;-79
2022/04/06 09:56:22;;;;;;;18.43;3.60;;;10.20;99.90;;;;;;5150184;27;20275;-83
2022/04/06 09:58:49;;;;;;;19.80;3.90;;;10.20;99.90;;;;;;5159846;27;20289;-77
2022/04/06 10:01:16;;;;;;;15.83;3.37;;;10.10;99.90;;;;;;5177456;27;20291;-81
2022/04/06 10:03:48;;;;;;;22.43;4.33;;;10.10;99.90;;;;;;5159351;27;20371;-81
2022/04/06 10:06:14;;;;;;;22.93;3.93;;;10.00;99.90;;;;;;5177644;27;20271;-82
2022/04/06 10:08:41;;;;;;;17.67;4.20;;;10.10;99.90;;;;;;5177841;27;20275;-81
2022/04/06 10:11:07;;;;;;;20.43;4.03;;;10.10;99.90;;;;;;5177295;27;20042;-80
2022/04/06 10:13:33;;;;;;;17.97;3.87;;;10.10;99.90;;;;;;5159272;27;20294;-81
2022/04/06 10:15:59;;;;;;;20.03;3.83;;;10.10;99.90;;;;;;5177681;27;20038;-82
2022/04/06 10:18:27;;;;;;;23.77;4.67;;;10.00;99.90;;;;;;5158923;27;20340;-80
2022/04/06 10:21:53;;;;;;;17.97;3.90;;;10.10;99.90;;;;;;5177572;27;20087;-80
2022/04/06 10:24:37;;;;;;;15.20;3.57;;;10.00;99.90;;;;;;5071971;28;20294;-79
2022/04/06 10:27:14;;;;;;;21.07;4.17;;;10.00;99.90;;;;;;5072310;28;20294;-82
2022/04/06 10:30:08;;;;;;;20.47;5.10;;;10.00;99.90;;;;;;5139376;27;20428;-79
2022/04/06 10:32:53;;;;;;;26.93;4.70;;;10.00;99.90;;;;;;5177326;27;20328;-78
2022/04/06 10:35:33;;;;;;;20.55;3.80;;;10.00;99.90;;;;;;5158559;27;20322;-85
2022/04/06 10:37:59;;;;;;;18.83;5.53;;;10.00;99.90;;;;;;5177206;27;20129;-78
2022/04/06 10:40:45;;;;;;;23.80;5.37;;;9.90;99.90;;;;;;5176719;27;20395;-77
2022/04/06 10:43:50;;;;;;;20.07;4.70;;;10.00;99.90;;;;;;5158434;27;20046;-75
2022/04/06 10:46:35;;;;;;;22.20;4.33;;;10.00;99.90;;;;;;5071484;28;20322;-77
2022/04/06 10:49:06;;;;;;;19.87;4.50;;;10.00;99.90;;;;;;5071815;28;20374;-77
2022/04/06 10:51:37;;;;;;;24.40;4.70;;;10.00;99.90;;;;;;5139399;27;20284;-80
2022/04/06 10:54:12;;;;;;;23.50;5.27;;;10.10;99.90;;;;;;5176900;27;20271;-81
2022/04/06 10:56:50;;;;;;;22.70;4.68;;;10.10;99.90;;;;;;5176683;27;20283;-78
2022/04/06 10:59:17;;;;;;;21.60;4.33;;;10.20;99.90;;;;;;5176527;27;20065;-79
2022/04/06 11:01:46;;;;;;;22.17;5.20;;;10.30;99.90;;;;;;5176505;27;20292;-77
2022/04/06 11:04:25;;;;;;;19.37;4.70;;;10.30;99.90;;;;;;5176080;27;20263;-78
2022/04/06 11:06:56;;;;;;;22.27;4.60;;;10.50;99.90;;;;;;5158055;27;20770;-79
2022/04/06 11:12:21;;;;;;;22.70;5.23;;;10.70;99.90;;;;;;5157671;27;20283;-79
2022/04/06 11:14:49;;;;;;;21.10;4.73;;;10.80;99.90;;;;;;5158202;27;20287;-78
2022/04/06 11:17:41;;;;;;;22.30;4.67;;;10.90;99.90;;;;;;5176003;27;20366;-78
2022/04/06 11:20:15;;;;;;;18.27;4.73;;;11.00;99.90;;;;;;5157941;27;20759;-80
2022/04/06 11:23:02;;;;;;;19.75;3.97;;;11.10;99.90;;;;;;5178077;27;20280;-86
2022/04/06 11:25:31;;;;;;;21.90;4.37;;;11.20;99.90;;;;;;5176180;27;20046;-81
2022/04/06 11:28:11;;;;;;;18.67;4.10;;;11.30;99.90;;;;;;5157693;27;20290;-81
2022/04/06 11:30:42;;;;;;;23.17;3.60;;;11.40;99.90;;;;;;5155404;27;20280;-75
2022/04/06 11:33:08;;;;;;;17.30;3.77;;;11.60;99.90;;;;;;5155489;27;20274;-80
2022/04/06 11:35:36;;;;;;;24.13;4.97;;;11.80;99.90;;;;;;5136336;27;20284;-79
2022/04/06 11:38:07;;;;;;;19.63;5.70;;;11.90;99.90;;;;;;5136846;27;20379;-79
2022/04/06 11:40:37;;;;;;;18.07;4.23;;;12.00;99.90;;;;;;5154839;27;20296;-78
2022/04/06 11:43:07;;;;;;;19.33;5.00;;;12.00;99.90;;;;;;5155229;27;20332;-79
2022/04/06 11:45:44;;;;;;;13.83;3.83;;;12.10;99.90;;;;;;5136384;27;20691;-79
2022/04/06 11:48:15;;;;;;;13.80;3.73;;;12.20;99.90;;;;;;5155072;27;20321;-79
2022/04/06 11:50:41;;;;;;;14.10;3.63;;;12.20;99.90;;;;;;5157954;27;20305;-83
2022/04/06 11:53:15;;;;;;;21.97;5.10;;;12.30;99.90;;;;;;5158211;27;20755;-78
2022/04/06 11:55:50;;;;;;;14.73;3.33;;;12.30;99.90;;;;;;5164794;27;20279;-80
2022/04/06 11:58:36;;;;;;;14.93;3.45;;;12.20;99.90;;;;;;5145345;27;20773;-80
2022/04/06 12:01:39;;;;;;;13.83;3.67;;;12.20;99.90;;;;;;5164508;27;20081;-82
2022/04/06 12:04:13;;;;;;;14.93;3.23;;;12.10;99.90;;;;;;5145203;27;20363;-84
2022/04/06 12:06:39;;;;;;;15.13;3.67;;;12.10;99.90;;;;;;5154602;27;20279;-83
2022/04/06 12:09:06;;;;;;;20.23;4.43;;;12.10;99.90;;;;;;5154911;27;20273;-81
2022/04/06 12:11:35;;;;;;;19.43;3.80;;;12.20;99.90;;;;;;5154563;27;20091;-80
2022/04/06 12:14:02;;;;;;;12.50;3.50;;;12.30;99.90;;;;;;5154628;27;20292;-80
2022/04/06 12:16:29;;;;;;;16.93;4.17;;;12.30;99.90;;;;;;5136250;27;20288;-80
2022/04/06 12:18:55;;;;;;;16.10;4.13;;;12.40;99.90;;;;;;5136177;27;20333;-80
2022/04/06 12:21:23;;;;;;;16.13;3.87;;;12.30;99.90;;;;;;5118722;27;20779;-82
2022/04/06 12:23:50;;;;;;;17.10;3.90;;;12.40;99.90;;;;;;5154866;27;20294;-81
2022/04/06 12:26:16;;;;;;;17.70;3.37;;;12.40;99.90;;;;;;5136425;27;20284;-83
2022/04/06 12:28:44;;;;;;;16.87;3.43;;;12.30;99.90;;;;;;5154284;27;20360;-84
2022/04/06 12:31:10;;;;;;;18.90;4.10;;;12.30;99.90;;;;;;5136826;27;20038;-82
2022/04/06 12:33:50;;;;;;;21.70;4.63;;;12.40;99.90;;;;;;5154432;27;20685;-82
2022/04/06 12:36:25;;;;;;;17.37;4.13;;;12.40;99.90;;;;;;5154521;27;20291;-82
2022/04/06 12:39:10;;;;;;;22.10;5.28;;;12.30;99.90;;;;;;5154615;27;20290;-82
2022/04/06 12:42:07;;;;;;;14.68;3.72;;;12.30;99.90;;;;;;5154195;27;20478;-82
2022/04/06 12:44:34;;;;;;;19.73;4.13;;;12.40;99.90;;;;;;5154166;27;20057;-82
2022/04/06 12:47:01;;;;;;;16.67;3.90;;;12.40;99.90;;;;;;5154422;27;20340;-82
2022/04/06 12:49:37;;;;;;;15.00;3.70;;;12.40;99.90;;;;;;5156053;27;20275;-82
2022/04/06 12:52:14;;;;;;;18.00;3.93;;;12.40;99.90;;;;;;5140085;27;20283;-82
2022/04/06 12:54:42;;;;;;;20.27;5.07;;;12.40;99.90;;;;;;5158205;27;20288;-83
2022/04/06 12:57:40;;;;;;;13.83;3.70;;;12.50;99.90;;;;;;5158667;27;20348;-83
2022/04/06 13:00:13;;;;;;;18.23;4.03;;;12.50;99.90;;;;;;5101791;27;20292;-82
2022/04/06 13:02:52;;;;;;;16.53;4.27;;;12.50;99.90;;;;;;5158070;27;20276;-81